Time;durP1;ratioP1;P1;durP2;ratioP2;P2;SDS_P1;SDS_P2;PMS_P1;PMS_P2;Temp;Humidity;BMP_temperature;BMP_pressure;BME280_temperature;BME280_humidity;BME280_pressure;Samples;Min_cycle;Max_cycle;Signal;HPM_P1;HPM_P2
2021/05/14 00:01:20;;;;;;;17.40;12.35;;;11.30;99.90;;;;;;5049874;28;20032;-45
2021/05/14 00:03:45;;;;;;;15.13;11.02;;;11.30;99.90;;;;;;5050071;28;20070;-46
2021/05/14 00:06:11;;;;;;;15.68;11.60;;;11.30;99.90;;;;;;5049522;28;20029;-45
2021/05/14 00:08:36;;;;;;;13.75;10.77;;;11.30;99.90;;;;;;5049493;28;20395;-46
2021/05/14 00:11:02;;;;;;;16.58;10.43;;;11.30;99.90;;;;;;5050544;28;20025;-44
2021/05/14 00:13:27;;;;;;;13.20;9.82;;;11.20;99.90;;;;;;5050334;28;20025;-47
2021/05/14 00:15:54;;;;;;;16.92;11.95;;;11.20;99.90;;;;;;5050287;28;20032;-47
2021/05/14 00:18:19;;;;;;;15.27;11.15;;;11.20;99.90;;;;;;5049364;28;20082;-46
2021/05/14 00:20:46;;;;;;;15.57;10.68;;;11.20;99.90;;;;;;5050340;28;20086;-45
2021/05/14 00:23:12;;;;;;;14.95;11.48;;;11.20;99.90;;;;;;5050501;28;20025;-45
2021/05/14 00:25:39;;;;;;;16.70;11.57;;;11.20;99.90;;;;;;5050116;28;20021;-45
2021/05/14 00:28:05;;;;;;;17.20;12.07;;;11.20;99.90;;;;;;5049005;28;20108;-45
2021/05/14 00:30:30;;;;;;;19.15;12.23;;;11.20;99.90;;;;;;5050184;28;20124;-44
2021/05/14 00:32:56;;;;;;;15.40;10.55;;;11.10;99.90;;;;;;5050111;28;20025;-44
2021/05/14 00:35:22;;;;;;;18.58;12.57;;;11.20;99.90;;;;;;5050248;28;20024;-45
2021/05/14 00:37:48;;;;;;;19.08;12.77;;;11.20;99.90;;;;;;5049056;28;20120;-45
2021/05/14 00:40:14;;;;;;;14.90;11.57;;;11.10;99.90;;;;;;5049893;28;20108;-46
2021/05/14 00:42:39;;;;;;;15.48;11.07;;;11.10;99.90;;;;;;5050333;28;20033;-45
2021/05/14 00:45:07;;;;;;;11.95;9.52;;;11.20;99.90;;;;;;5050340;28;20040;-46
2021/05/14 00:47:33;;;;;;;16.00;10.63;;;11.10;99.90;;;;;;5049501;28;20021;-47
2021/05/14 00:49:59;;;;;;;16.95;10.95;;;11.20;99.90;;;;;;5049708;28;20055;-47
2021/05/14 00:52:24;;;;;;;14.32;10.57;;;11.10;99.90;;;;;;5048417;28;20061;-45
2021/05/14 00:54:53;;;;;;;17.05;10.63;;;11.10;99.90;;;;;;5049730;28;20021;-45
2021/05/14 00:57:19;;;;;;;15.52;11.27;;;11.10;99.90;;;;;;5049498;28;20052;-46
2021/05/14 00:59:49;;;;;;;13.30;9.48;;;11.10;99.90;;;;;;5047949;28;20056;-46
2021/05/14 01:02:16;;;;;;;15.10;11.27;;;11.10;99.90;;;;;;5049462;28;20066;-46
2021/05/14 01:04:42;;;;;;;14.00;11.13;;;11.10;99.90;;;;;;5049130;28;20432;-47
2021/05/14 01:07:09;;;;;;;14.75;10.98;;;11.10;99.90;;;;;;5049384;28;20017;-45
2021/05/14 01:09:35;;;;;;;11.95;9.50;;;11.10;99.90;;;;;;5048843;28;20017;-45
2021/05/14 01:12:01;;;;;;;13.18;10.27;;;11.10;99.90;;;;;;5049307;28;20116;-45
2021/05/14 01:14:27;;;;;;;13.20;10.57;;;11.10;99.90;;;;;;5049413;28;20021;-45
2021/05/14 01:16:53;;;;;;;16.80;11.10;;;11.00;99.90;;;;;;5049415;28;20040;-44
2021/05/14 01:19:18;;;;;;;15.27;11.32;;;11.00;99.90;;;;;;5048271;28;20491;-44
2021/05/14 01:21:44;;;;;;;13.63;10.40;;;11.00;99.90;;;;;;5048842;28;20025;-47
2021/05/14 01:24:11;;;;;;;18.05;11.48;;;11.10;99.90;;;;;;5047820;28;20092;-45
2021/05/14 01:26:36;;;;;;;13.48;10.63;;;11.00;99.90;;;;;;5049500;28;20451;-44
2021/05/14 01:29:04;;;;;;;17.20;12.15;;;11.00;99.90;;;;;;5048230;28;20055;-44
2021/05/14 01:31:30;;;;;;;17.27;11.85;;;11.10;99.90;;;;;;5048704;28;20115;-44
2021/05/14 01:33:56;;;;;;;15.52;12.05;;;11.10;99.90;;;;;;5048809;28;20113;-45
2021/05/14 01:36:21;;;;;;;15.25;11.43;;;11.00;99.90;;;;;;5049064;28;20115;-45
2021/05/14 01:38:47;;;;;;;14.82;11.15;;;11.00;99.90;;;;;;5048490;28;20521;-44
2021/05/14 01:41:13;;;;;;;19.65;12.73;;;11.00;99.90;;;;;;5048276;28;20037;-45
2021/05/14 01:43:38;;;;;;;18.58;12.13;;;11.00;99.90;;;;;;5048921;28;20049;-44
2021/05/14 01:46:06;;;;;;;18.55;12.95;;;11.00;99.90;;;;;;5048729;28;20459;-45
2021/05/14 01:48:32;;;;;;;14.73;11.30;;;10.90;99.90;;;;;;5047562;28;20021;-44
2021/05/14 01:51:03;;;;;;;20.55;13.32;;;11.00;99.90;;;;;;5048504;28;20506;-45
2021/05/14 01:53:29;;;;;;;14.43;10.68;;;11.00;99.90;;;;;;5047314;28;20036;-47
2021/05/14 01:55:56;;;;;;;18.52;11.32;;;10.90;99.90;;;;;;5048490;28;20401;-43
2021/05/14 01:58:21;;;;;;;15.65;10.95;;;11.00;99.90;;;;;;5047614;28;20021;-45
2021/05/14 02:00:47;;;;;;;14.60;11.25;;;11.00;99.90;;;;;;5047009;28;20025;-45
2021/05/14 02:03:12;;;;;;;17.67;11.93;;;11.00;99.90;;;;;;5048264;28;20486;-45
2021/05/14 02:05:38;;;;;;;17.67;12.98;;;11.00;99.90;;;;;;5048422;28;20036;-44
2021/05/14 02:08:03;;;;;;;14.80;10.63;;;11.00;99.90;;;;;;5047928;28;20029;-45
2021/05/14 02:10:29;;;;;;;15.50;11.00;;;11.00;99.90;;;;;;5048643;28;20040;-44
2021/05/14 02:12:54;;;;;;;15.52;11.43;;;11.00;99.90;;;;;;5047109;28;20024;-46
2021/05/14 02:15:20;;;;;;;14.95;10.45;;;11.00;99.90;;;;;;5048490;28;20076;-44
2021/05/14 02:17:45;;;;;;;15.77;11.95;;;11.00;99.90;;;;;;5047484;28;20427;-44
2021/05/14 02:20:12;;;;;;;15.45;11.27;;;11.00;99.90;;;;;;5048044;28;20037;-44
2021/05/14 02:22:38;;;;;;;20.80;13.27;;;11.00;99.90;;;;;;5048076;28;20029;-45
2021/05/14 02:25:04;;;;;;;18.23;12.43;;;11.00;99.90;;;;;;5048126;28;20489;-45
2021/05/14 02:27:30;;;;;;;16.98;12.00;;;10.90;99.90;;;;;;5046968;28;20064;-44
2021/05/14 02:29:56;;;;;;;18.10;12.05;;;11.00;99.90;;;;;;5047681;28;20142;-44
2021/05/14 02:32:22;;;;;;;20.98;12.27;;;10.90;99.90;;;;;;5047877;28;20032;-45
2021/05/14 02:34:48;;;;;;;20.63;12.52;;;10.90;99.90;;;;;;5047615;28;20025;-44
2021/05/14 02:37:14;;;;;;;18.70;13.15;;;10.90;99.90;;;;;;5047957;28;20116;-44
2021/05/14 02:39:39;;;;;;;19.15;13.20;;;10.90;99.90;;;;;;5047672;28;20036;-45
2021/05/14 02:42:05;;;;;;;23.48;13.07;;;10.90;99.90;;;;;;5047416;28;20071;-47
2021/05/14 02:44:30;;;;;;;17.73;12.75;;;10.90;99.90;;;;;;5046310;28;20027;-44
2021/05/14 02:46:56;;;;;;;18.38;11.95;;;10.90;99.90;;;;;;5047706;28;20035;-44
2021/05/14 02:49:22;;;;;;;15.82;12.02;;;10.90;99.90;;;;;;5045776;28;20032;-44
2021/05/14 02:51:47;;;;;;;23.48;14.05;;;10.90;99.90;;;;;;5046857;28;20048;-44
2021/05/14 02:54:13;;;;;;;16.33;12.85;;;10.90;99.90;;;;;;5047315;28;20417;-45
2021/05/14 02:56:39;;;;;;;18.02;12.52;;;10.90;99.90;;;;;;5047115;28;20688;-44
2021/05/14 02:59:04;;;;;;;24.02;14.32;;;10.90;99.90;;;;;;5046883;28;20078;-44
2021/05/14 03:01:30;;;;;;;25.23;13.95;;;10.90;99.90;;;;;;5045246;28;20437;-44
2021/05/14 03:03:55;;;;;;;25.38;13.57;;;10.80;99.90;;;;;;5047168;28;20037;-45
2021/05/14 03:06:21;;;;;;;18.08;13.85;;;10.80;99.90;;;;;;5047463;28;20033;-44
2021/05/14 03:08:47;;;;;;;20.45;15.13;;;10.80;99.90;;;;;;5046389;28;20025;-45
2021/05/14 03:11:13;;;;;;;19.83;13.88;;;10.80;99.90;;;;;;5047449;28;20022;-44
2021/05/14 03:13:38;;;;;;;17.60;12.90;;;10.80;99.90;;;;;;5047025;28;20117;-44
2021/05/14 03:16:04;;;;;;;15.90;12.68;;;10.80;99.90;;;;;;5047673;28;20029;-44
2021/05/14 03:18:30;;;;;;;20.48;14.32;;;10.80;99.90;;;;;;5046921;28;20029;-45
2021/05/14 03:20:55;;;;;;;19.88;13.95;;;10.80;99.90;;;;;;5047296;28;20025;-44
2021/05/14 03:23:23;;;;;;;25.00;13.93;;;10.80;99.90;;;;;;5047470;28;20189;-44
2021/05/14 03:25:48;;;;;;;22.30;14.55;;;10.90;99.90;;;;;;5047174;28;20471;-44
2021/05/14 03:28:14;;;;;;;20.65;14.27;;;10.90;99.90;;;;;;5047002;28;20064;-45
2021/05/14 03:30:40;;;;;;;18.65;13.43;;;10.90;99.90;;;;;;5047200;28;20429;-44
2021/05/14 03:33:05;;;;;;;21.83;14.48;;;10.80;99.90;;;;;;5047240;28;20490;-44
2021/05/14 03:35:31;;;;;;;21.00;14.38;;;10.90;99.90;;;;;;5047473;28;20031;-44
2021/05/14 03:37:57;;;;;;;18.70;13.38;;;10.80;99.90;;;;;;5046558;28;20089;-44
2021/05/14 03:40:36;;;;;;;19.70;14.10;;;10.80;99.90;;;;;;5045241;28;20115;-44
2021/05/14 03:43:03;;;;;;;17.92;12.73;;;10.90;99.90;;;;;;5046427;28;20435;-44
2021/05/14 03:45:28;;;;;;;21.33;13.45;;;10.90;99.90;;;;;;5046548;28;20127;-45
2021/05/14 03:47:55;;;;;;;20.85;14.50;;;10.90;99.90;;;;;;5046041;28;20096;-44
2021/05/14 03:50:21;;;;;;;20.75;15.00;;;10.80;99.90;;;;;;5046631;28;20054;-45
2021/05/14 03:52:47;;;;;;;20.55;13.30;;;10.90;99.90;;;;;;5046911;28;20025;-43
2021/05/14 03:55:13;;;;;;;23.65;15.48;;;10.90;99.90;;;;;;5046436;28;20033;-45
2021/05/14 03:57:38;;;;;;;20.15;14.15;;;10.90;99.90;;;;;;5045403;28;20382;-45
2021/05/14 04:00:05;;;;;;;27.42;16.40;;;10.80;99.90;;;;;;5046567;28;20052;-44
2021/05/14 04:02:31;;;;;;;23.92;15.65;;;10.90;99.90;;;;;;5046146;28;20116;-45
2021/05/14 04:04:58;;;;;;;23.15;14.57;;;10.80;99.90;;;;;;5049235;28;20151;-45
2021/05/14 04:07:23;;;;;;;26.17;15.30;;;10.80;99.90;;;;;;5049379;28;20017;-45
2021/05/14 04:10:02;;;;;;;21.77;14.65;;;10.80;99.90;;;;;;5049750;28;20021;-44
2021/05/14 04:15:10;;;;;;;20.85;14.40;;;10.80;99.90;;;;;;5050213;28;20570;-45
2021/05/14 04:17:36;;;;;;;;;;;10.80;99.90;;;;;;5050009;28;20063;-44
2021/05/14 04:20:03;;;;;;;22.80;15.88;;;10.80;99.90;;;;;;5049481;28;19932;-44
2021/05/14 04:22:29;;;;;;;21.33;16.33;;;10.80;99.90;;;;;;5049599;28;20075;-45
2021/05/14 04:24:55;;;;;;;30.10;15.65;;;10.80;99.90;;;;;;5049476;28;20081;-44
2021/05/14 04:27:20;;;;;;;22.75;15.90;;;10.70;99.90;;;;;;5049201;28;20399;-44
2021/05/14 04:29:46;;;;;;;27.45;15.57;;;10.80;99.90;;;;;;5047664;28;20027;-44
2021/05/14 04:32:12;;;;;;;23.23;15.75;;;10.80;99.90;;;;;;5049318;28;20478;-45
2021/05/14 04:34:39;;;;;;;20.25;15.00;;;10.80;99.90;;;;;;5049861;28;20032;-45
2021/05/14 04:37:06;;;;;;;24.48;17.40;;;10.80;99.90;;;;;;5049624;28;20028;-45
2021/05/14 04:39:32;;;;;;;23.23;15.30;;;10.90;99.90;;;;;;5048268;28;20086;-45
2021/05/14 04:41:58;;;;;;;20.15;14.45;;;10.80;99.90;;;;;;5049130;28;20029;-45
2021/05/14 04:44:23;;;;;;;21.48;14.35;;;10.90;99.90;;;;;;5049182;28;20017;-45
2021/05/14 04:46:49;;;;;;;22.58;15.77;;;10.90;99.90;;;;;;5049331;28;20036;-44
2021/05/14 04:49:16;;;;;;;24.63;16.70;;;10.90;99.90;;;;;;5048595;28;20115;-45
2021/05/14 04:51:41;;;;;;;22.67;15.02;;;10.90;99.90;;;;;;5049206;28;20386;-44
2021/05/14 04:54:07;;;;;;;25.95;15.95;;;10.90;99.90;;;;;;5049004;28;20352;-45
2021/05/14 04:56:32;;;;;;;23.15;16.38;;;10.90;99.90;;;;;;5049519;28;20041;-45
2021/05/14 04:58:58;;;;;;;21.60;14.90;;;10.90;99.90;;;;;;5049177;28;20178;-43
2021/05/14 05:01:23;;;;;;;20.85;14.68;;;10.90;99.90;;;;;;5049782;28;20040;-44
2021/05/14 05:03:57;;;;;;;21.80;16.08;;;10.90;99.90;;;;;;5049681;28;20571;-45
2021/05/14 05:06:23;;;;;;;22.52;16.20;;;11.00;99.90;;;;;;5047893;28;20402;-45
2021/05/14 05:08:48;;;;;;;24.65;15.07;;;11.00;99.90;;;;;;5048969;28;20017;-45
2021/05/14 05:11:14;;;;;;;21.67;15.75;;;11.00;99.90;;;;;;5049786;28;20055;-46
2021/05/14 05:13:40;;;;;;;27.80;17.38;;;11.00;99.90;;;;;;5049378;28;20041;-45
2021/05/14 05:16:06;;;;;;;22.33;15.45;;;11.00;99.90;;;;;;5048563;28;20040;-45
2021/05/14 05:18:32;;;;;;;25.35;16.60;;;11.00;99.90;;;;;;5048629;28;20029;-45
2021/05/14 05:20:58;;;;;;;22.83;15.23;;;11.00;99.90;;;;;;5049095;28;20490;-52
2021/05/14 05:23:23;;;;;;;23.67;15.45;;;11.00;99.90;;;;;;5049266;28;20029;-46
2021/05/14 05:25:49;;;;;;;23.15;14.88;;;11.00;99.90;;;;;;5049269;28;20025;-45
2021/05/14 05:28:26;;;;;;;20.08;15.05;;;11.00;99.90;;;;;;5047098;28;20032;-45
2021/05/14 05:30:52;;;;;;;23.67;15.30;;;11.00;99.90;;;;;;5048876;28;20021;-45
2021/05/14 05:33:17;;;;;;;24.08;16.38;;;11.00;99.90;;;;;;5048973;28;20036;-44
2021/05/14 05:35:43;;;;;;;22.17;15.90;;;11.00;99.90;;;;;;5048414;28;20036;-45
2021/05/14 05:38:18;;;;;;;20.38;13.90;;;11.00;99.90;;;;;;5048342;28;20617;-45
2021/05/14 05:40:44;;;;;;;23.13;15.50;;;11.00;99.90;;;;;;5048732;28;20498;-46
2021/05/14 05:43:11;;;;;;;21.92;14.82;;;11.00;99.90;;;;;;5047031;28;20441;-46
2021/05/14 05:45:36;;;;;;;22.80;13.93;;;11.00;99.90;;;;;;5048758;28;20075;-45
2021/05/14 05:48:02;;;;;;;19.95;14.43;;;11.00;99.90;;;;;;5048044;28;20020;-45
2021/05/14 05:50:28;;;;;;;24.38;15.95;;;11.00;99.90;;;;;;5048422;28;20036;-45
2021/05/14 05:52:54;;;;;;;21.02;15.35;;;11.00;99.90;;;;;;5049114;28;20025;-45
2021/05/14 05:55:21;;;;;;;20.63;14.73;;;11.00;99.90;;;;;;5048724;28;20020;-46
2021/05/14 05:57:46;;;;;;;18.10;14.30;;;11.00;99.90;;;;;;5046939;28;20028;-45
2021/05/14 06:00:12;;;;;;;22.55;15.48;;;11.00;99.90;;;;;;5033037;28;20029;-46
2021/05/14 06:02:38;;;;;;;18.83;13.07;;;11.00;99.90;;;;;;5028157;28;20116;-44
2021/05/14 06:05:05;;;;;;;24.63;15.60;;;11.00;99.90;;;;;;5028298;28;20059;-46
2021/05/14 06:07:30;;;;;;;24.83;13.85;;;11.00;99.90;;;;;;5027440;28;20036;-46
2021/05/14 06:09:56;;;;;;;20.08;13.60;;;11.00;99.90;;;;;;5028291;28;20029;-45
2021/05/14 06:12:22;;;;;;;17.83;13.48;;;11.00;99.90;;;;;;5028112;28;20463;-45
2021/05/14 06:14:50;;;;;;;16.70;12.70;;;11.10;99.90;;;;;;5026074;28;20113;-43
2021/05/14 06:17:16;;;;;;;20.40;13.43;;;11.10;99.90;;;;;;5027686;28;20079;-45
2021/05/14 06:19:46;;;;;;;18.17;12.52;;;11.10;99.90;;;;;;5026162;28;20026;-45
2021/05/14 06:22:11;;;;;;;17.98;12.45;;;11.20;99.90;;;;;;5028220;28;20056;-45
2021/05/14 06:24:37;;;;;;;19.65;12.77;;;11.20;99.90;;;;;;5028076;28;20065;-44
2021/05/14 06:27:03;;;;;;;18.77;13.02;;;11.20;99.90;;;;;;5026761;28;20048;-44
2021/05/14 06:29:29;;;;;;;17.70;13.23;;;11.30;99.90;;;;;;5025601;28;20029;-46
2021/05/14 06:31:54;;;;;;;18.48;13.85;;;11.40;99.90;;;;;;5031941;28;20121;-45
2021/05/14 06:34:20;;;;;;;22.67;13.88;;;11.40;99.90;;;;;;5028982;28;20017;-44
2021/05/14 06:36:45;;;;;;;15.45;12.77;;;11.40;99.90;;;;;;5036245;28;20116;-44
2021/05/14 06:39:12;;;;;;;17.45;12.55;;;11.50;99.90;;;;;;5026578;28;20497;-45
2021/05/14 06:41:37;;;;;;;18.83;13.20;;;11.60;99.90;;;;;;5028125;28;20083;-46
2021/05/14 06:44:03;;;;;;;18.52;13.30;;;11.60;99.90;;;;;;5031065;28;20033;-46
2021/05/14 06:46:28;;;;;;;15.68;11.80;;;11.60;99.90;;;;;;5028237;28;20038;-46
2021/05/14 06:48:54;;;;;;;20.35;12.80;;;11.70;99.90;;;;;;5036705;28;20104;-45
2021/05/14 06:51:20;;;;;;;16.85;12.40;;;11.80;99.90;;;;;;5033756;28;20029;-47
2021/05/14 06:53:47;;;;;;;17.92;13.40;;;11.80;99.90;;;;;;5044039;28;20367;-45
2021/05/14 06:56:12;;;;;;;17.85;13.02;;;11.90;99.90;;;;;;5031363;28;20025;-47
2021/05/14 06:58:38;;;;;;;18.23;12.88;;;12.00;99.90;;;;;;5037909;28;20025;-46
2021/05/14 07:01:03;;;;;;;20.40;12.63;;;11.80;99.90;;;;;;5032445;28;20028;-47
2021/05/14 07:03:29;;;;;;;17.08;12.85;;;11.90;99.90;;;;;;5031044;28;20073;-45
2021/05/14 07:05:55;;;;;;;20.25;13.38;;;12.00;99.90;;;;;;5028979;28;20546;-46
2021/05/14 07:08:21;;;;;;;22.88;13.57;;;11.90;99.90;;;;;;5028449;28;20475;-44
2021/05/14 07:10:48;;;;;;;24.25;15.27;;;12.00;99.90;;;;;;5030397;28;20067;-45
2021/05/14 07:13:13;;;;;;;20.85;14.02;;;11.90;99.90;;;;;;5027718;28;20048;-46
2021/05/14 07:15:39;;;;;;;20.40;13.30;;;12.00;99.90;;;;;;5026420;28;20021;-45
2021/05/14 07:18:05;;;;;;;23.25;15.27;;;12.00;99.90;;;;;;5025230;28;20026;-44
2021/05/14 07:20:32;;;;;;;25.77;15.48;;;12.10;99.90;;;;;;5027348;28;20463;-45
2021/05/14 07:22:58;;;;;;;18.45;14.15;;;12.10;99.90;;;;;;5027090;28;20124;-45
2021/05/14 07:25:24;;;;;;;22.17;14.70;;;12.00;99.90;;;;;;5027263;28;20123;-46
2021/05/14 07:27:51;;;;;;;23.27;16.30;;;12.20;99.90;;;;;;5026783;28;20033;-46
2021/05/14 07:30:17;;;;;;;21.95;14.60;;;12.20;99.90;;;;;;5027235;28;20274;-46
2021/05/14 07:32:42;;;;;;;17.95;14.23;;;12.30;99.90;;;;;;5027504;28;20101;-46
2021/05/14 07:35:08;;;;;;;19.83;13.75;;;12.40;99.90;;;;;;5025948;28;20025;-46
2021/05/14 07:37:34;;;;;;;19.15;14.60;;;12.60;99.90;;;;;;5026390;28;20025;-44
2021/05/14 07:39:59;;;;;;;21.35;15.18;;;12.70;99.90;;;;;;5030745;28;20052;-46
2021/05/14 07:42:25;;;;;;;19.50;14.02;;;12.70;99.90;;;;;;5031364;28;20024;-45
2021/05/14 07:44:51;;;;;;;19.60;13.82;;;12.60;99.90;;;;;;5029320;28;20025;-45
2021/05/14 07:47:16;;;;;;;24.02;16.20;;;12.60;99.90;;;;;;5030994;28;20021;-45
2021/05/14 07:49:42;;;;;;;23.27;15.40;;;12.50;99.90;;;;;;5030861;28;20026;-45
2021/05/14 07:52:08;;;;;;;20.52;14.35;;;12.60;99.90;;;;;;5030918;28;20085;-44
2021/05/14 07:54:34;;;;;;;20.98;13.85;;;12.70;99.90;;;;;;5030919;28;20026;-44
2021/05/14 07:57:00;;;;;;;19.95;14.00;;;12.80;99.90;;;;;;5029082;28;20037;-44
2021/05/14 07:59:26;;;;;;;18.55;14.10;;;12.80;99.90;;;;;;5030147;28;20115;-46
2021/05/14 08:01:52;;;;;;;23.80;14.77;;;13.00;99.90;;;;;;5029628;28;20029;-44
2021/05/14 08:04:18;;;;;;;22.60;16.02;;;13.10;99.90;;;;;;5030816;28;20399;-44
2021/05/14 08:06:43;;;;;;;20.58;15.43;;;13.10;99.90;;;;;;5029613;28;20022;-44
2021/05/14 08:09:10;;;;;;;26.27;17.80;;;13.20;99.90;;;;;;5029251;28;20436;-44
2021/05/14 08:11:36;;;;;;;23.50;15.88;;;13.30;99.90;;;;;;5028403;28;20088;-46
2021/05/14 08:14:02;;;;;;;22.95;17.65;;;13.40;99.90;;;;;;5030475;28;20025;-45
2021/05/14 08:16:28;;;;;;;25.90;17.67;;;13.60;99.90;;;;;;5030464;28;20030;-45
2021/05/14 08:18:53;;;;;;;23.17;15.90;;;13.40;99.90;;;;;;5029770;28;20053;-44
2021/05/14 08:21:19;;;;;;;22.30;14.60;;;13.40;99.90;;;;;;5030023;28;20036;-46
2021/05/14 08:23:45;;;;;;;24.15;15.73;;;13.50;99.90;;;;;;5030302;28;20434;-44
2021/05/14 08:26:12;;;;;;;22.92;15.73;;;13.50;99.90;;;;;;5030187;28;20033;-44
2021/05/14 08:28:37;;;;;;;21.55;15.70;;;13.40;99.90;;;;;;5029397;28;20021;-46
2021/05/14 08:31:03;;;;;;;23.88;15.23;;;13.30;99.90;;;;;;5030152;28;20029;-45
2021/05/14 08:33:28;;;;;;;22.40;14.07;;;13.30;99.90;;;;;;5030223;28;20379;-45
2021/05/14 08:35:54;;;;;;;24.33;15.18;;;13.40;99.90;;;;;;5028729;28;20032;-45
2021/05/14 08:38:20;;;;;;;21.08;14.27;;;13.40;99.90;;;;;;5029485;28;20025;-45
2021/05/14 08:40:45;;;;;;;20.42;13.70;;;13.40;99.90;;;;;;5030227;28;20020;-45
2021/05/14 08:43:12;;;;;;;18.25;12.63;;;13.50;99.90;;;;;;5028424;28;20026;-45
2021/05/14 08:45:38;;;;;;;19.98;13.85;;;13.40;99.90;;;;;;5029730;28;20033;-46
2021/05/14 08:48:06;;;;;;;21.30;13.95;;;13.40;99.90;;;;;;5029054;28;20017;-45
2021/05/14 08:50:32;;;;;;;22.13;14.30;;;13.50;99.90;;;;;;5029477;28;20025;-44
2021/05/14 08:52:57;;;;;;;22.33;14.75;;;13.60;99.90;;;;;;5029784;28;20022;-45
2021/05/14 08:55:24;;;;;;;21.80;14.10;;;13.70;99.90;;;;;;5029432;28;20462;-45
2021/05/14 08:57:51;;;;;;;21.10;14.57;;;13.70;99.90;;;;;;5029442;28;20034;-45
2021/05/14 09:00:17;;;;;;;20.20;12.82;;;13.70;99.90;;;;;;5029421;28;20032;-45
2021/05/14 09:02:42;;;;;;;19.73;13.68;;;14.00;99.90;;;;;;5029178;28;20691;-45
2021/05/14 09:05:32;;;;;;;21.17;14.90;;;14.40;99.90;;;;;;5020939;28;20053;-44
2021/05/14 09:07:58;;;;;;;20.35;12.93;;;14.40;99.90;;;;;;5006009;28;20036;-43
2021/05/14 09:10:26;;;;;;;21.30;13.75;;;14.30;99.90;;;;;;5008116;28;20515;-43
2021/05/14 09:12:52;;;;;;;21.30;13.73;;;14.60;99.90;;;;;;5008003;28;20029;-45
2021/05/14 09:15:21;;;;;;;19.52;13.52;;;14.80;99.90;;;;;;5018126;28;20549;-44
2021/05/14 09:18:10;;;;;;;20.98;13.80;;;14.80;99.90;;;;;;5027533;28;20036;-44
2021/05/14 09:20:57;;;;;;;18.15;13.70;;;15.10;99.90;;;;;;5027564;28;20021;-44
2021/05/14 09:23:40;;;;;;;18.20;12.18;;;15.20;99.90;;;;;;5007067;28;20119;-44
2021/05/14 09:26:11;;;;;;;15.65;11.85;;;15.50;99.90;;;;;;5004940;28;20113;-45
2021/05/14 09:28:48;;;;;;;14.80;10.80;;;15.70;99.90;;;;;;5027845;28;20025;-43
2021/05/14 09:31:24;;;;;;;15.00;10.50;;;16.20;99.90;;;;;;5028327;28;20033;-45
2021/05/14 09:33:51;;;;;;;17.88;11.07;;;16.50;99.90;;;;;;5028235;28;20026;-44
2021/05/14 09:36:23;;;;;;;16.88;9.68;;;16.40;99.90;;;;;;5028466;28;20072;-46
2021/05/14 09:38:49;;;;;;;12.25;9.15;;;16.30;99.90;;;;;;5027689;28;20072;-45
2021/05/14 09:41:26;;;;;;;12.98;9.10;;;16.10;99.90;;;;;;5029095;28;20034;-45
2021/05/14 09:43:55;;;;;;;11.27;8.27;;;16.20;99.90;;;;;;5048597;28;20082;-44
2021/05/14 09:46:57;;;;;;;11.65;8.23;;;16.10;99.90;;;;;;5047586;28;20071;-44
2021/05/14 09:49:24;;;;;;;11.18;8.45;;;16.20;99.90;;;;;;5045276;28;20025;-45
2021/05/14 09:51:55;;;;;;;9.43;6.55;;;16.30;99.90;;;;;;5047951;28;20036;-45
2021/05/14 09:54:24;;;;;;;11.90;7.68;;;16.60;99.90;;;;;;5047499;28;20028;-44
2021/05/14 09:59:50;;;;;;;12.63;7.93;;;17.20;99.90;;;;;;5047841;28;20552;-44
2021/05/14 10:02:34;;;;;;;8.10;5.95;;;17.70;99.90;;;;;;5047344;28;20051;-44
2021/05/14 10:05:08;;;;;;;8.80;6.70;;;18.40;99.90;;;;;;5048083;28;20115;-45
2021/05/14 10:07:36;;;;;;;10.05;7.13;;;19.00;97.10;;;;;;5047795;28;20013;-45
2021/05/14 10:10:06;;;;;;;9.70;6.80;;;19.00;93.50;;;;;;5047043;28;20021;-44
2021/05/14 10:12:32;;;;;;;10.60;6.70;;;19.40;96.90;;;;;;5047879;28;20029;-44
2021/05/14 10:15:01;;;;;;;12.25;7.30;;;19.80;92.60;;;;;;5048264;28;20474;-44
2021/05/14 10:17:26;;;;;;;10.23;7.25;;;19.80;91.60;;;;;;5047557;28;20037;-44
2021/05/14 10:19:53;;;;;;;10.95;8.18;;;19.90;92.20;;;;;;5047871;28;20033;-43
2021/05/14 10:22:19;;;;;;;16.30;10.85;;;19.30;92.10;;;;;;5048084;28;20033;-45
2021/05/14 10:24:47;;;;;;;13.65;10.55;;;18.60;95.00;;;;;;5040110;28;20109;-44
2021/05/14 10:27:18;;;;;;;16.08;10.85;;;18.30;97.00;;;;;;5022559;28;20017;-44
2021/05/14 10:29:46;;;;;;;17.17;11.15;;;17.90;95.60;;;;;;5029090;28;20048;-44
2021/05/14 10:32:12;;;;;;;13.75;10.15;;;17.80;95.20;;;;;;5026440;28;20087;-44
2021/05/14 10:34:38;;;;;;;15.63;11.63;;;17.60;95.90;;;;;;5027262;28;20029;-44
2021/05/14 10:37:03;;;;;;;16.42;10.15;;;17.70;95.80;;;;;;5027208;28;20025;-45
2021/05/14 10:39:34;;;;;;;17.33;11.35;;;17.40;98.00;;;;;;5026623;28;20018;-45
2021/05/14 10:42:11;;;;;;;21.55;13.35;;;17.30;97.00;;;;;;5025595;28;20052;-44
2021/05/14 10:44:54;;;;;;;17.35;11.80;;;16.80;97.70;;;;;;5025283;28;20028;-44
2021/05/14 10:47:42;;;;;;;16.02;11.27;;;16.80;98.60;;;;;;5024989;28;20207;-46
2021/05/14 10:50:13;;;;;;;16.08;11.13;;;17.10;99.90;;;;;;5026554;28;20050;-44
2021/05/14 10:53:16;;;;;;;16.27;11.13;;;17.40;98.00;;;;;;5026932;28;20032;-44
2021/05/14 10:55:42;;;;;;;16.77;11.60;;;17.80;98.80;;;;;;5025632;28;20549;-44
2021/05/14 10:58:08;;;;;;;19.23;12.60;;;17.70;96.80;;;;;;5026466;28;20487;-44
2021/05/14 11:00:39;;;;;;;20.92;13.50;;;17.70;97.80;;;;;;5025675;28;20096;-44
2021/05/14 11:03:13;;;;;;;17.40;12.38;;;17.90;98.20;;;;;;5026739;28;20479;-45
2021/05/14 11:05:44;;;;;;;17.52;11.85;;;18.10;97.00;;;;;;5024037;28;20430;-44
2021/05/14 11:08:31;;;;;;;16.05;11.90;;;18.60;94.80;;;;;;5026398;28;20554;-45
2021/05/14 11:11:20;;;;;;;16.77;11.02;;;19.20;94.10;;;;;;5024544;28;20100;-44
2021/05/14 11:13:51;;;;;;;15.75;10.80;;;20.40;91.10;;;;;;5025215;28;20021;-46
2021/05/14 11:16:33;;;;;;;17.67;10.63;;;21.20;88.20;;;;;;5024884;28;20499;-44
2021/05/14 11:19:08;;;;;;;14.05;9.57;;;23.00;76.60;;;;;;5024157;28;20029;-45
2021/05/14 11:22:02;;;;;;;13.95;9.10;;;23.90;69.20;;;;;;5024555;28;20051;-45
2021/05/14 11:24:36;;;;;;;10.75;7.97;;;23.40;63.70;;;;;;5026959;28;20022;-45
2021/05/14 11:27:23;;;;;;;12.60;9.40;;;23.70;61.80;;;;;;5027799;28;20022;-44
2021/05/14 11:29:52;;;;;;;12.98;9.05;;;22.90;64.00;;;;;;5027129;28;20025;-45
2021/05/14 11:32:36;;;;;;;14.45;8.23;;;22.70;65.70;;;;;;5027750;28;20060;-47
2021/05/14 11:35:19;;;;;;;13.43;8.07;;;21.50;67.40;;;;;;5026627;28;20124;-44
2021/05/14 11:37:55;;;;;;;11.20;6.88;;;21.00;70.40;;;;;;5026744;28;20017;-45
2021/05/14 11:40:28;;;;;;;9.90;7.03;;;20.90;70.40;;;;;;5026577;28;20029;-45
2021/05/14 11:43:13;;;;;;;9.73;7.15;;;20.90;73.20;;;;;;5025508;28;20034;-45
2021/05/14 11:45:41;;;;;;;9.30;6.45;;;21.20;72.10;;;;;;5026387;28;20029;-43
2021/05/14 11:48:11;;;;;;;7.22;5.43;;;21.20;67.40;;;;;;5028543;28;20074;-44
2021/05/14 11:50:42;;;;;;;8.38;5.75;;;21.20;68.50;;;;;;5025753;28;20503;-44
2021/05/14 11:53:10;;;;;;;9.43;5.80;;;21.20;71.10;;;;;;5028067;28;20029;-44
2021/05/14 11:55:40;;;;;;;7.57;5.60;;;21.40;68.70;;;;;;5025202;28;20017;-44
2021/05/14 11:58:06;;;;;;;10.55;5.93;;;21.50;69.80;;;;;;5026640;28;20079;-45
2021/05/14 12:00:43;;;;;;;10.63;6.57;;;21.80;68.10;;;;;;5028194;28;20037;-44
2021/05/14 12:03:17;;;;;;;10.70;5.53;;;21.40;67.30;;;;;;5026552;28;20021;-46
2021/05/14 12:05:43;;;;;;;10.80;6.18;;;21.20;69.50;;;;;;5026416;28;20063;-44
2021/05/14 12:08:19;;;;;;;10.90;6.10;;;21.50;69.70;;;;;;5027431;28;20037;-45
2021/05/14 12:10:47;;;;;;;9.98;6.40;;;21.30;68.70;;;;;;5026208;28;20505;-45
2021/05/14 12:13:21;;;;;;;10.60;7.03;;;21.40;66.70;;;;;;5027716;28;20091;-45
2021/05/14 12:15:57;;;;;;;11.32;6.65;;;20.80;66.30;;;;;;5027215;28;20029;-44
2021/05/14 12:18:22;;;;;;;10.65;7.22;;;20.80;69.20;;;;;;5027220;28;20053;-45
2021/05/14 12:20:49;;;;;;;10.85;5.78;;;20.00;68.50;;;;;;5027709;28;20064;-44
2021/05/14 12:23:15;;;;;;;9.55;5.38;;;20.10;75.40;;;;;;5027217;28;20096;-44
2021/05/14 12:25:51;;;;;;;9.50;5.82;;;20.00;67.70;;;;;;5029687;28;20025;-44
2021/05/14 12:28:37;;;;;;;9.75;5.63;;;19.70;68.40;;;;;;5028755;28;20050;-45
2021/05/14 12:31:05;;;;;;;11.50;6.25;;;19.50;69.20;;;;;;5030224;28;20029;-45
2021/05/14 12:33:32;;;;;;;11.13;5.60;;;19.90;70.50;;;;;;5030484;28;20014;-46
2021/05/14 12:36:05;;;;;;;9.93;4.88;;;20.40;72.50;;;;;;5030818;28;20021;-45
2021/05/14 12:38:49;;;;;;;8.52;5.03;;;20.20;69.50;;;;;;5027694;28;20124;-45
2021/05/14 12:41:31;;;;;;;8.13;4.35;;;20.10;70.50;;;;;;5028923;28;20066;-47